Terminal Aerodrome Forecast
Issued by NWS

Current Version | Previous Version | Text Only | Print | Product List | Glossary Off
Versions: 1 2 3 4 5 6 7 8 9 10 11 12 13 14 15 16 17 18 19

268
FTUS41 KPBZ 131730
TAFMGW
TAF
KMGW 131730Z 1318/1418 33009G15KT P6SM -SHSN BKN025
     FM132200 32008KT P6SM BKN060
     FM140500 33005KT P6SM SCT035
     FM141700 34003KT P6SM FEW200=

USA.gov is the U.S. government's official web portal to all federal, state and local government web resources and services.